Hunt City, Illinois
Current Conditions -  °F | °C
As of 1:15 AM on Sunday 26 Oct 2014 (Local Time) from KRSV Reporting Station
Clear Clear  
Wind Chill: 57°   Ceiling: Unl
Heat Index: 57°   Visibility: 10mi
Dew Point: 46°   Wind: 3mph
Humidity: 67%   Direction: 330°NNW
Pressure: 30.01"   Gusts: NA
Location:  38.9751°N, 88.0102°W
Report Text: KRSV 260615Z AUTO 33003KT 10SM CLR 14/08 A3001 RMK AO2 T01390078
Loading
Personal Weather Stations






























Interactive Weather Map
Tropical Storm Tracking
New forecast layout! Learn more

10-Day Weather Forecast

Advertisements
Track Severe Weather on mobile